Time;durP1;ratioP1;P1;durP2;ratioP2;P2;SDS_P1;SDS_P2;PMS_P1;PMS_P2;Temp;Humidity;BMP_temperature;BMP_pressure;BME280_temperature;BME280_humidity;BME280_pressure;Samples;Min_cycle;Max_cycle;Signal;HPM_P1;HPM_P2
2023/09/27 00:01:05;;;;;;;5.20;0.90;;;;;;;18.53;68.82;101021.44;4970019;28;20143;-75
2023/09/27 00:03:34;;;;;;;3.85;0.95;;;;;;;18.65;67.09;101004.81;4964143;28;20076;-76
2023/09/27 00:06:04;;;;;;;9.10;1.17;;;;;;;18.67;66.67;101012.66;4967113;28;20047;-77
2023/09/27 00:08:32;;;;;;;10.38;1.85;;;;;;;18.69;67.39;101013.53;4966591;28;20109;-77
2023/09/27 00:11:02;;;;;;;8.52;1.15;;;;;;;18.70;67.27;101017.94;4969130;28;20089;-74
2023/09/27 00:13:31;;;;;;;4.82;0.95;;;;;;;18.65;66.82;101017.94;4970521;28;20055;-75
2023/09/27 00:15:59;;;;;;;5.75;0.95;;;;;;;18.73;68.29;101023.16;4966184;28;20149;-75
2023/09/27 00:18:29;;;;;;;6.70;1.15;;;;;;;18.73;67.33;101024.03;4973041;28;20046;-77
2023/09/27 00:20:58;;;;;;;4.35;1.02;;;;;;;18.69;65.83;101032.78;4967659;28;20069;-76
2023/09/27 00:23:29;;;;;;;5.32;1.48;;;;;;;18.67;66.12;101028.41;4964180;28;20043;-74
2023/09/27 00:25:57;;;;;;;5.40;1.45;;;;;;;18.61;65.10;101038.00;4967088;28;20076;-76
2023/09/27 00:28:26;;;;;;;5.28;1.25;;;;;;;18.61;66.05;101030.16;4972412;28;20047;-75
2023/09/27 00:30:57;;;;;;;2.88;0.70;;;;;;;18.58;66.28;101032.78;4969779;28;20058;-77
2023/09/27 00:33:26;;;;;;;2.65;0.73;;;;;;;18.53;65.18;101026.66;4960714;28;20138;-78
2023/09/27 00:35:55;;;;;;;5.13;1.58;;;;;;;18.50;66.79;101037.13;4961614;28;20118;-73
2023/09/27 00:38:24;;;;;;;5.22;0.90;;;;;;;18.46;65.27;101035.38;4967591;28;20051;-75
2023/09/27 00:40:54;;;;;;;2.78;0.90;;;;;;;18.47;66.76;101031.03;4972014;28;20106;-77
2023/09/27 00:43:30;;;;;;;11.65;1.25;;;;;;;18.42;67.14;101033.63;4981012;28;20062;-75
2023/09/27 00:46:02;;;;;;;3.63;0.80;;;;;;;18.43;67.70;101038.00;4968893;28;20055;-77
2023/09/27 00:48:33;;;;;;;5.30;1.40;;;;;;;18.40;68.50;101032.75;4982427;28;20060;-74
2023/09/27 00:51:03;;;;;;;3.28;0.98;;;;;;;18.36;68.32;101023.13;4965992;28;20046;-78
2023/09/27 00:53:34;;;;;;;10.02;1.45;;;;;;;18.35;69.74;101030.13;4965075;28;20520;-76
2023/09/27 00:56:05;;;;;;;6.97;1.17;;;;;;;18.38;69.69;101018.78;4963028;28;20512;-75
2023/09/27 00:58:34;;;;;;;5.72;1.27;;;;;;;18.39;68.08;101020.50;4971552;28;20111;-73
2023/09/27 01:01:03;;;;;;;7.63;1.15;;;;;;;18.39;69.76;101028.38;4964337;28;20057;-75
2023/09/27 01:03:32;;;;;;;5.68;1.10;;;;;;;18.40;70.08;101027.50;4961536;28;20043;-76
2023/09/27 01:06:01;;;;;;;8.30;1.10;;;;;;;18.37;69.37;101024.88;4959192;28;20155;-76
2023/09/27 01:08:30;;;;;;;4.70;1.50;;;;;;;18.37;69.20;101028.38;4977689;28;20129;-74
2023/09/27 01:11:06;;;;;;;4.35;0.85;;;;;;;18.31;68.98;101001.31;4965754;28;20150;-75
2023/09/27 01:13:35;;;;;;;7.68;1.23;;;;;;;18.33;69.06;101015.28;4964092;28;20099;-73
2023/09/27 01:16:04;;;;;;;4.38;1.65;;;;;;;18.31;69.27;101017.03;4964897;28;20051;-73
2023/09/27 01:18:33;;;;;;;4.90;1.02;;;;;;;18.29;69.22;101010.91;4969586;28;20058;-75
2023/09/27 01:21:02;;;;;;;2.58;1.05;;;;;;;18.27;70.94;101002.16;4963032;28;20050;-74
2023/09/27 01:23:33;;;;;;;5.70;1.83;;;;;;;18.25;73.23;100998.66;4960975;28;20047;-75
2023/09/27 01:26:03;;;;;;;5.28;0.93;;;;;;;18.24;71.41;100997.78;4965563;28;20046;-74
2023/09/27 01:28:34;;;;;;;4.32;0.80;;;;;;;18.21;70.52;100988.19;4969326;28;20047;-75
2023/09/27 01:31:08;;;;;;;7.85;1.30;;;;;;;18.23;72.45;100992.53;4962227;28;20109;-74
2023/09/27 01:33:37;;;;;;;4.57;1.10;;;;;;;18.19;73.75;100995.16;4957752;28;20472;-77
2023/09/27 01:36:06;;;;;;;4.97;1.17;;;;;;;18.14;72.77;100983.81;4964739;28;20488;-73
2023/09/27 01:38:38;;;;;;;7.05;1.10;;;;;;;18.12;72.42;100975.09;4966392;28;20086;-77
2023/09/27 01:41:10;;;;;;;1.63;0.93;;;;;;;18.09;72.76;100972.44;4964102;28;20085;-72
2023/09/27 01:43:38;;;;;;;4.25;0.80;;;;;;;18.05;78.02;100973.31;4970238;28;20050;-74
2023/09/27 01:46:07;;;;;;;7.00;2.03;;;;;;;17.96;74.59;100965.44;4965395;28;20043;-72
2023/09/27 01:48:35;;;;;;;11.02;1.38;;;;;;;17.92;80.32;100963.69;4967868;28;20050;-74
2023/09/27 01:51:04;;;;;;;7.38;2.92;;;;;;;17.83;76.60;100954.06;4967345;28;20580;-73
2023/09/27 01:53:37;;;;;;;14.48;3.28;;;;;;;17.78;77.88;100967.09;4969810;28;20078;-76
2023/09/27 01:56:09;;;;;;;7.90;3.75;;;;;;;17.74;75.75;100967.94;4968916;28;20059;-73
2023/09/27 01:58:37;;;;;;;14.63;4.90;;;;;;;17.71;76.39;100973.19;4964360;28;20519;-74
2023/09/27 02:01:06;;;;;;;10.95;3.67;;;;;;;17.70;76.01;100981.88;4958635;28;20110;-75
2023/09/27 02:03:37;;;;;;;7.47;2.47;;;;;;;17.69;76.87;100974.06;4961821;28;20043;-74
2023/09/27 02:06:06;;;;;;;5.30;1.67;;;;;;;17.69;77.26;100964.44;4961315;28;20089;-73
2023/09/27 02:08:35;;;;;;;11.50;2.15;;;;;;;17.69;77.47;100971.44;4971447;28;20066;-72
2023/09/27 02:11:05;;;;;;;7.68;1.30;;;;;;;17.65;77.98;100975.78;4966358;28;20051;-71
2023/09/27 02:13:35;;;;;;;3.67;1.08;;;;;;;17.65;78.64;100980.13;4957156;28;20069;-71
2023/09/27 02:16:04;;;;;;;9.15;0.95;;;;;;;17.64;78.89;100968.81;4959558;28;20110;-72
2023/09/27 02:18:33;;;;;;;8.73;1.60;;;;;;;17.66;80.63;100967.06;4964728;28;20540;-73
2023/09/27 02:21:03;;;;;;;7.43;3.22;;;;;;;17.64;84.08;100947.88;4962276;28;20411;-74
2023/09/27 02:23:32;;;;;;;9.23;2.78;;;;;;;17.58;86.90;100947.84;4957647;28;20055;-72
2023/09/27 02:26:00;;;;;;;6.82;2.33;;;;;;;17.50;88.13;100949.53;4955809;28;20107;-72
2023/09/27 02:28:31;;;;;;;4.57;1.50;;;;;;;17.46;87.23;100948.66;4965424;28;20054;-72
2023/09/27 02:30:59;;;;;;;5.90;2.17;;;;;;;17.43;87.81;100937.31;4960029;28;20074;-73
2023/09/27 02:33:28;;;;;;;7.35;1.42;;;;;;;17.37;88.64;100933.78;4968050;28;20043;-73
2023/09/27 02:35:57;;;;;;;3.75;1.35;;;;;;;17.33;89.62;100932.03;4965975;28;20054;-72
2023/09/27 02:38:26;;;;;;;5.57;1.65;;;;;;;17.29;90.32;100930.25;4957869;28;20051;-72
2023/09/27 02:40:55;;;;;;;7.63;1.67;;;;;;;17.27;90.16;100923.28;4967480;28;20551;-73
2023/09/27 02:43:24;;;;;;;2.20;1.20;;;;;;;17.22;90.56;100917.16;4967501;28;20093;-71
2023/09/27 02:45:55;;;;;;;7.53;1.60;;;;;;;17.17;92.32;100915.38;4965990;28;20089;-73
2023/09/27 02:48:23;;;;;;;5.18;1.35;;;;;;;17.14;92.57;100910.16;4968729;28;20047;-71
2023/09/27 02:50:52;;;;;;;7.00;1.83;;;;;;;17.11;93.46;100914.47;4966307;28;20051;-73
2023/09/27 02:53:23;;;;;;;4.80;1.30;;;;;;;17.06;95.48;100911.84;4950035;28;20496;-71
2023/09/27 02:55:51;;;;;;;4.40;1.30;;;;;;;17.03;93.32;100896.16;4957905;28;20142;-72
2023/09/27 02:58:21;;;;;;;8.20;1.33;;;;;;;17.02;92.58;100888.28;4954039;28;20054;-70
2023/09/27 03:00:49;;;;;;;5.88;1.77;;;;;;;16.98;92.56;100890.03;4961934;28;20055;-71
2023/09/27 03:03:20;;;;;;;3.85;1.13;;;;;;;16.95;92.60;100893.50;4962206;28;20847;-70
2023/09/27 03:05:49;;;;;;;7.32;1.40;;;;;;;16.91;91.71;100880.41;4959078;28;20141;-72
2023/09/27 03:08:18;;;;;;;7.10;1.88;;;;;;;16.93;90.50;100876.06;4960647;28;20058;-72
2023/09/27 03:10:48;;;;;;;3.50;0.73;;;;;;;16.93;89.82;100868.22;4966470;28;20061;-74
2023/09/27 03:13:16;;;;;;;4.85;1.13;;;;;;;16.86;88.43;100853.34;4966380;28;20046;-73
2023/09/27 03:15:45;;;;;;;2.60;0.90;;;;;;;16.81;92.57;100861.16;4962903;28;20146;-73
2023/09/27 03:18:15;;;;;;;4.80;1.00;;;;;;;16.84;93.80;100870.78;4968346;28;20124;-72
2023/09/27 03:20:46;;;;;;;3.05;0.98;;;;;;;16.81;93.19;100876.84;4970381;28;20109;-72
2023/09/27 03:23:16;;;;;;;4.80;1.02;;;;;;;16.79;93.91;100875.06;4965086;28;20129;-72
2023/09/27 03:25:46;;;;;;;6.15;0.90;;;;;;;16.76;95.60;100886.38;4961557;28;20121;-72
2023/09/27 03:28:15;;;;;;;8.23;1.88;;;;;;;16.73;94.78;100887.25;4964891;28;20051;-71
2023/09/27 03:30:44;;;;;;;3.35;1.40;;;;;;;16.71;94.06;100888.09;4965874;28;20047;-72
2023/09/27 03:33:12;;;;;;;6.85;1.27;;;;;;;16.71;94.08;100869.81;4964914;28;20976;-71
2023/09/27 03:35:41;;;;;;;2.70;1.00;;;;;;;16.68;95.19;100865.44;4963828;28;20535;-72
2023/09/27 03:38:11;;;;;;;4.75;1.15;;;;;;;16.68;95.80;100885.47;4964219;28;20047;-71
2023/09/27 03:40:42;;;;;;;5.20;1.17;;;;;;;16.63;93.88;100876.72;4965695;28;20097;-72
2023/09/27 03:43:11;;;;;;;5.18;0.77;;;;;;;16.62;94.96;100880.19;4965405;28;20488;-71
2023/09/27 03:45:39;;;;;;;5.40;1.20;;;;;;;16.62;96.49;100880.19;4965926;28;20223;-71
2023/09/27 03:48:08;;;;;;;5.10;1.38;;;;;;;16.62;96.32;100864.53;4968008;28;20526;-71
2023/09/27 03:50:37;;;;;;;4.45;1.17;;;;;;;16.61;91.00;100861.03;4955235;28;20050;-71
2023/09/27 03:53:06;;;;;;;2.30;1.13;;;;;;;16.55;93.84;100840.97;4951077;28;20059;-71
2023/09/27 03:55:37;;;;;;;3.95;1.20;;;;;;;16.59;95.15;100843.63;4960228;28;20051;-71
2023/09/27 03:58:12;;;;;;;5.93;0.80;;;;;;;16.56;95.75;100836.63;4955286;28;20053;-71
2023/09/27 04:00:40;;;;;;;2.25;0.80;;;;;;;16.50;95.09;100842.69;4967089;28;20050;-72
2023/09/27 04:03:09;;;;;;;3.08;0.85;;;;;;;16.50;95.57;100842.69;4953704;28;20055;-72
2023/09/27 04:05:37;;;;;;;4.57;1.20;;;;;;;16.47;89.88;100837.44;4969741;28;20104;-71
2023/09/27 04:08:11;;;;;;;4.78;0.95;;;;;;;16.49;94.33;100840.03;4967510;28;20122;-72
2023/09/27 04:10:41;;;;;;;3.83;1.10;;;;;;;16.47;96.12;100842.66;4970042;28;20048;-72
2023/09/27 04:13:10;;;;;;;6.55;1.50;;;;;;;16.44;95.49;100832.19;4962759;28;20050;-70
2023/09/27 04:15:38;;;;;;;3.58;0.95;;;;;;;16.44;96.04;100826.09;4965453;28;20074;-73
2023/09/27 04:18:07;;;;;;;5.85;1.15;;;;;;;16.44;92.37;100821.72;4964790;28;20054;-72
2023/09/27 04:20:36;;;;;;;6.88;1.38;;;;;;;16.45;92.31;100823.50;4965250;28;20073;-74
2023/09/27 04:23:05;;;;;;;10.07;1.88;;;;;;;16.45;94.19;100820.88;4958388;28;20066;-74
2023/09/27 04:25:34;;;;;;;6.10;1.60;;;;;;;16.42;97.04;100813.00;4953091;28;20058;-73
2023/09/27 04:28:05;;;;;;;2.50;1.40;;;;;;;16.40;96.38;100799.09;4962090;28;20535;-73
2023/09/27 04:30:37;;;;;;;5.35;1.10;;;;;;;16.39;95.74;100801.69;4969407;28;20043;-73
2023/09/27 04:33:07;;;;;;;2.90;1.10;;;;;;;16.36;96.90;100804.28;4970411;28;20081;-72
2023/09/27 04:35:35;;;;;;;8.45;1.38;;;;;;;16.31;97.47;100785.97;4958740;28;20368;-73
2023/09/27 04:38:04;;;;;;;3.33;1.08;;;;;;;16.30;97.12;100786.84;4961065;28;20512;-73
2023/09/27 04:40:35;;;;;;;6.03;1.40;;;;;;;16.28;96.07;100776.38;4973226;28;20098;-73
2023/09/27 04:43:06;;;;;;;6.30;1.20;;;;;;;16.26;99.20;100772.91;4970055;28;20121;-74
2023/09/27 04:45:35;;;;;;;13.93;1.20;;;;;;;16.27;99.96;100763.31;4955591;28;20051;-73
2023/09/27 04:48:04;;;;;;;11.02;1.40;;;;;;;16.26;100.00;100758.94;4968472;28;20051;-72
2023/09/27 04:50:34;;;;;;;8.82;1.05;;;;;;;16.24;100.00;100751.13;4966223;28;20078;-73
2023/09/27 04:53:05;;;;;;;5.97;1.48;;;;;;;16.21;100.00;100745.00;4965271;28;20051;-73
2023/09/27 04:55:34;;;;;;;3.67;0.90;;;;;;;16.19;99.37;100737.16;4965964;28;20049;-72
2023/09/27 04:58:03;;;;;;;4.60;1.10;;;;;;;16.19;97.63;100733.66;4959135;28;20624;-73
2023/09/27 05:00:33;;;;;;;5.50;1.10;;;;;;;16.18;95.40;100734.56;4963958;28;20507;-73
2023/09/27 05:03:03;;;;;;;7.07;1.40;;;;;;;16.09;95.12;100720.56;4965691;28;20134;-71
2023/09/27 05:05:32;;;;;;;5.97;1.80;;;;;;;16.12;94.08;100724.94;4960754;28;20050;-73
2023/09/27 05:08:01;;;;;;;4.32;1.20;;;;;;;16.10;93.51;100724.94;4963191;28;20121;-73
2023/09/27 05:10:30;;;;;;;6.50;1.23;;;;;;;16.12;94.88;100731.00;4966874;28;20054;-73
2023/09/27 05:12:58;;;;;;;4.53;2.00;;;;;;;16.11;96.06;100728.41;4956147;28;20062;-72
2023/09/27 05:15:27;;;;;;;5.15;1.08;;;;;;;16.10;97.14;100722.31;4958691;28;20078;-73
2023/09/27 05:17:57;;;;;;;9.15;1.13;;;;;;;16.08;96.31;100718.84;4968337;28;20130;-72
2023/09/27 05:20:26;;;;;;;4.43;1.10;;;;;;;16.09;96.36;100730.13;4965925;28;20122;-72
2023/09/27 05:22:55;;;;;;;3.95;1.13;;;;;;;16.09;94.15;100744.06;4961717;28;20050;-72
2023/09/27 05:25:24;;;;;;;3.90;1.48;;;;;;;16.09;88.42;100740.56;4964108;28;20058;-73
2023/09/27 05:28:09;;;;;;;7.50;1.58;;;;;;;16.13;84.71;100745.84;4963382;28;20453;-72
2023/09/27 05:30:38;;;;;;;4.25;0.80;;;;;;;16.19;86.47;100749.34;4961993;28;20074;-73
2023/09/27 05:33:08;;;;;;;3.03;0.65;;;;;;;16.21;84.12;100751.09;4964789;28;20054;-73
2023/09/27 05:35:37;;;;;;;3.85;0.98;;;;;;;16.27;84.67;100739.81;4955425;28;20047;-72
2023/09/27 05:38:06;;;;;;;3.28;1.30;;;;;;;16.30;83.60;100734.59;4959282;28;20051;-72
2023/09/27 05:40:35;;;;;;;6.57;1.48;;;;;;;16.36;83.81;100741.63;4965120;28;20050;-74
2023/09/27 05:43:04;;;;;;;1.92;1.08;;;;;;;16.39;83.73;100745.09;4966504;28;20145;-73
2023/09/27 05:45:36;;;;;;;5.15;0.88;;;;;;;16.41;83.66;100748.59;4966871;28;20065;-73
2023/09/27 05:48:07;;;;;;;5.05;0.90;;;;;;;16.43;82.97;100739.03;4963452;28;20039;-74
2023/09/27 05:50:37;;;;;;;2.17;1.00;;;;;;;16.45;83.92;100739.06;4963933;28;20410;-72
2023/09/27 05:53:06;;;;;;;7.38;1.30;;;;;;;16.46;84.71;100736.44;4961707;28;20051;-72
2023/09/27 05:55:35;;;;;;;5.28;1.15;;;;;;;16.48;84.83;100729.47;4969832;28;20061;-73
2023/09/27 05:58:03;;;;;;;5.40;1.27;;;;;;;16.51;86.19;100733.84;4974753;28;20059;-73
2023/09/27 06:00:37;;;;;;;4.32;0.90;;;;;;;16.51;86.38;100733.84;4967234;28;20049;-72
2023/09/27 06:03:08;;;;;;;5.97;1.35;;;;;;;16.52;87.34;100730.38;4961254;28;20560;-75
2023/09/27 06:05:42;;;;;;;3.00;1.00;;;;;;;16.50;88.38;100716.44;4971360;28;20494;-74
2023/09/27 06:08:10;;;;;;;3.22;1.35;;;;;;;16.50;89.35;100712.09;4965771;28;20050;-75
2023/09/27 06:10:40;;;;;;;5.32;0.93;;;;;;;16.50;90.25;100713.84;4964512;28;20051;-73
2023/09/27 06:13:10;;;;;;;4.43;1.08;;;;;;;16.46;92.59;100699.88;4962053;28;20492;-74
2023/09/27 06:15:40;;;;;;;2.20;1.10;;;;;;;16.40;95.03;100701.56;4965503;28;20543;-72
2023/09/27 06:18:12;;;;;;;3.88;1.35;;;;;;;16.39;95.98;100679.81;4966537;28;20508;-73
2023/09/27 06:20:40;;;;;;;5.47;1.83;;;;;;;16.34;95.78;100660.66;4965475;28;20043;-73
2023/09/27 06:23:09;;;;;;;4.68;1.50;;;;;;;16.29;96.66;100670.22;4962448;28;20054;-74
2023/09/27 06:25:43;;;;;;;3.42;1.00;;;;;;;16.22;97.64;100650.16;4966678;28;20146;-73
2023/09/27 06:28:13;;;;;;;3.55;0.93;;;;;;;16.16;98.99;100652.75;4961502;28;20141;-72
2023/09/27 06:30:42;;;;;;;8.63;1.60;;;;;;;16.14;100.00;100668.38;4960448;28;20146;-74
2023/09/27 06:33:13;;;;;;;5.68;1.20;;;;;;;16.10;100.00;100690.09;4965566;28;20043;-74
2023/09/27 06:35:42;;;;;;;4.53;1.52;;;;;;;16.03;100.00;100704.84;4963464;28;20050;-74
2023/09/27 06:38:11;;;;;;;6.10;1.45;;;;;;;15.99;100.00;100715.25;4960679;28;20055;-74
2023/09/27 06:40:40;;;;;;;6.13;1.63;;;;;;;15.95;100.00;100696.13;4965881;28;20054;-75
2023/09/27 06:43:10;;;;;;;5.75;0.95;;;;;;;15.94;100.00;100667.41;4961261;28;20061;-74
2023/09/27 06:45:51;;;;;;;3.13;1.08;;;;;;;15.91;100.00;100658.69;4961485;28;20701;-73
2023/09/27 06:48:21;;;;;;;6.80;1.38;;;;;;;15.84;100.00;100640.38;4964227;28;20042;-73
2023/09/27 06:50:50;;;;;;;3.92;1.00;;;;;;;15.73;98.45;100637.69;4961776;28;20073;-74
2023/09/27 06:53:20;;;;;;;3.05;0.85;;;;;;;15.60;99.78;100636.72;4966159;28;20053;-75
2023/09/27 06:55:52;;;;;;;4.10;1.20;;;;;;;15.57;99.30;100626.25;4962324;28;20058;-73
2023/09/27 06:58:23;;;;;;;3.65;1.00;;;;;;;15.53;99.89;100619.28;4959669;28;20055;-73
2023/09/27 07:00:52;;;;;;;3.63;1.00;;;;;;;15.49;98.44;100618.38;4962721;28;20054;-73
2023/09/27 07:03:24;;;;;;;2.20;1.05;;;;;;;15.46;100.00;100628.81;4963907;28;20078;-73
2023/09/27 07:05:53;;;;;;;2.83;1.00;;;;;;;15.43;100.00;100646.16;4963671;28;20050;-76
2023/09/27 07:08:22;;;;;;;3.33;1.27;;;;;;;15.41;100.00;100640.03;4966738;28;20054;-76
2023/09/27 07:10:51;;;;;;;7.80;1.10;;;;;;;15.37;98.04;100653.91;4960506;28;20086;-75
2023/09/27 07:13:20;;;;;;;1.70;0.63;;;;;;;15.26;97.10;100652.09;4968469;28;20050;-75
2023/09/27 07:15:49;;;;;;;6.03;1.33;;;;;;;15.27;98.43;100642.53;4965991;28;20137;-76
2023/09/27 07:18:20;;;;;;;5.18;1.05;;;;;;;15.18;95.63;100627.69;4964899;28;20113;-78
2023/09/27 07:20:52;;;;;;;1.77;0.80;;;;;;;15.21;95.31;100626.84;4962251;28;20146;-75
2023/09/27 07:23:21;;;;;;;5.10;0.80;;;;;;;15.15;96.28;100595.53;4968042;28;20054;-76
2023/09/27 07:25:52;;;;;;;3.05;0.82;;;;;;;15.12;97.90;100549.47;4969349;28;20051;-76
2023/09/27 07:28:21;;;;;;;3.10;1.35;;;;;;;14.92;94.01;100519.78;4960826;28;20055;-76
2023/09/27 07:30:49;;;;;;;3.63;1.38;;;;;;;14.91;93.85;100559.72;4962718;28;20130;-75
2023/09/27 07:33:18;;;;;;;3.92;0.80;;;;;;;14.91;93.26;100565.78;4966712;28;20043;-74
2023/09/27 07:35:51;;;;;;;3.08;0.98;;;;;;;14.93;92.75;100563.19;4970635;28;20115;-73
2023/09/27 07:38:24;;;;;;;6.85;0.95;;;;;;;14.92;93.51;100545.84;4967918;28;20389;-74
2023/09/27 07:40:53;;;;;;;4.63;0.77;;;;;;;14.95;93.55;100540.66;4969640;28;20119;-74
2023/09/27 07:43:21;;;;;;;1.05;0.50;;;;;;;14.94;96.64;100537.19;4972886;28;20046;-73
2023/09/27 07:45:50;;;;;;;6.30;1.02;;;;;;;14.88;94.04;100542.31;4971832;28;20062;-74
2023/09/27 07:48:21;;;;;;;6.32;1.05;;;;;;;14.87;94.83;100528.44;4967361;28;20058;-74
2023/09/27 07:50:50;;;;;;;1.75;0.65;;;;;;;14.84;98.25;100523.22;4966484;28;20133;-77
2023/09/27 07:53:19;;;;;;;3.38;0.93;;;;;;;14.75;97.93;100517.91;4969644;28;20125;-76
2023/09/27 07:55:51;;;;;;;2.15;0.85;;;;;;;14.71;96.94;100503.13;4968350;28;20054;-75
2023/09/27 07:58:21;;;;;;;3.33;0.75;;;;;;;14.65;98.33;100514.34;4965434;28;20061;-79
2023/09/27 08:00:50;;;;;;;1.95;1.38;;;;;;;14.61;98.01;100499.56;4964655;28;20046;-79
2023/09/27 08:03:21;;;;;;;2.67;0.88;;;;;;;14.57;95.43;100484.78;4967399;28;20554;-74
2023/09/27 08:05:50;;;;;;;2.60;0.60;;;;;;;14.53;96.87;100469.09;4966585;28;20054;-77
2023/09/27 08:08:18;;;;;;;7.28;0.82;;;;;;;14.57;96.71;100476.97;4964917;28;20078;-74
2023/09/27 08:10:47;;;;;;;2.63;0.45;;;;;;;14.52;94.05;100475.13;4967852;28;20054;-77
2023/09/27 08:13:19;;;;;;;2.95;0.60;;;;;;;14.53;94.77;100466.47;4965150;28;20051;-72
2023/09/27 08:15:50;;;;;;;4.60;1.00;;;;;;;14.52;94.54;100462.13;4964594;28;20080;-74
2023/09/27 08:18:19;;;;;;;3.55;0.82;;;;;;;14.52;93.75;100459.50;4964004;28;20062;-74
2023/09/27 08:20:52;;;;;;;5.80;0.80;;;;;;;14.53;94.47;100464.75;4966689;28;20055;-76
2023/09/27 08:23:21;;;;;;;2.13;0.73;;;;;;;14.59;97.33;100449.22;4968704;28;20509;-75
2023/09/27 08:25:50;;;;;;;3.00;0.77;;;;;;;14.57;94.32;100457.88;4972721;28;20657;-74
2023/09/27 08:28:21;;;;;;;3.63;1.00;;;;;;;14.54;97.48;100460.41;4964507;28;20138;-73
2023/09/27 08:30:50;;;;;;;5.25;0.88;;;;;;;14.56;100.00;100463.91;4966548;28;20062;-74
2023/09/27 08:33:21;;;;;;;0.70;0.47;;;;;;;14.55;96.94;100477.81;4966188;28;20559;-75
2023/09/27 08:35:53;;;;;;;1.42;0.50;;;;;;;14.47;96.66;100480.28;4966107;28;20587;-79
2023/09/27 08:38:22;;;;;;;4.97;0.70;;;;;;;14.51;98.63;100481.22;4964916;28;20050;-73
2023/09/27 08:40:51;;;;;;;4.57;0.95;;;;;;;14.52;100.00;100480.34;4967823;28;20066;-75
2023/09/27 08:43:22;;;;;;;3.38;0.80;;;;;;;14.50;100.00;100495.06;4968151;28;20065;-77
2023/09/27 08:45:54;;;;;;;3.65;0.47;;;;;;;14.48;100.00;100507.19;4966550;28;20428;-78
2023/09/27 08:48:24;;;;;;;2.90;1.35;;;;;;;14.43;100.00;100505.44;4968393;28;20057;-78
2023/09/27 08:50:55;;;;;;;0.93;0.52;;;;;;;14.42;100.00;100529.72;4965262;28;20134;-82
2023/09/27 08:53:24;;;;;;;6.20;1.20;;;;;;;14.43;100.00;100522.75;4969927;28;20082;-77
2023/09/27 08:55:53;;;;;;;7.25;0.93;;;;;;;14.41;100.00;100522.78;4965249;28;20528;-81
2023/09/27 08:58:27;;;;;;;5.15;0.77;;;;;;;14.38;100.00;100525.31;4970164;28;20378;-84
2023/09/27 09:01:00;;;;;;;5.68;0.88;;;;;;;14.33;100.00;100519.22;4965513;28;20065;-82
2023/09/27 09:03:30;;;;;;;1.55;0.70;;;;;;;14.37;100.00;100531.41;4971377;28;20055;-82
2023/09/27 09:05:58;;;;;;;0.98;0.50;;;;;;;14.38;100.00;100538.34;4968318;28;20650;-80
2023/09/27 09:08:27;;;;;;;2.17;0.57;;;;;;;14.41;100.00;100568.75;4965760;28;20059;-81
2023/09/27 09:10:57;;;;;;;5.07;0.60;;;;;;;14.38;100.00;100585.19;4959264;28;20047;-80
2023/09/27 09:13:28;;;;;;;2.35;0.60;;;;;;;14.33;100.00;100566.06;4964434;28;20061;-77
2023/09/27 09:15:57;;;;;;;2.55;0.47;;;;;;;14.23;100.00;100501.75;4966269;28;20468;-75
2023/09/27 09:18:32;;;;;;;10.70;1.65;;;;;;;14.18;100.00;100490.44;4966604;28;20122;-79
2023/09/27 09:21:08;;;;;;;3.92;0.75;;;;;;;14.02;100.00;100445.19;4965925;28;20051;-77
2023/09/27 09:23:38;;;;;;;1.65;0.47;;;;;;;13.97;100.00;100468.53;4962462;28;20058;-79
2023/09/27 09:26:09;;;;;;;1.42;0.68;;;;;;;13.95;100.00;100491.06;4967795;28;20055;-81
2023/09/27 09:28:56;;;;;;;3.47;1.00;;;;;;;13.81;100.00;100492.59;4966138;28;20054;-79
2023/09/27 09:31:25;;;;;;;7.03;0.95;;;;;;;13.80;100.00;100472.66;4962395;28;20564;-76
2023/09/27 09:34:42;;;;;;;3.63;0.60;;;;;;;13.80;100.00;100483.06;4966895;28;20055;-76
2023/09/27 09:37:20;;;;;;;3.28;0.63;;;;;;;13.77;100.00;100483.91;4945127;28;20449;-85
2023/09/27 09:39:51;;;;;;;1.45;0.73;;;;;;;13.79;100.00;100494.34;4969421;28;20161;-77
2023/09/27 09:42:33;;;;;;;5.70;0.95;;;;;;;13.71;100.00;100477.75;4967400;28;20047;-76
2023/09/27 09:45:06;;;;;;;5.95;0.55;;;;;;;13.71;100.00;100472.56;4967441;28;20047;-78
2023/09/27 09:47:37;;;;;;;2.15;0.60;;;;;;;13.64;100.00;100478.53;4964988;28;20046;-76
2023/09/27 09:50:16;;;;;;;2.50;0.73;;;;;;;13.63;100.00;100480.28;4965897;28;20058;-81
2023/09/27 09:52:58;;;;;;;5.68;1.13;;;;;;;13.51;100.00;100483.56;4965467;28;20435;-79
2023/09/27 09:55:29;;;;;;;4.05;0.70;;;;;;;13.48;100.00;100477.47;4967709;28;20049;-75
2023/09/27 09:58:06;;;;;;;1.45;0.70;;;;;;;13.50;100.00;100483.56;4960084;28;20059;-78
2023/09/27 10:00:37;;;;;;;4.43;0.75;;;;;;;13.52;100.00;100485.31;4966050;28;20059;-81
2023/09/27 10:03:15;;;;;;;2.83;0.93;;;;;;;13.50;100.00;100484.44;4962892;28;20070;-76
2023/09/27 10:05:45;;;;;;;0.68;0.30;;;;;;;13.44;100.00;100497.34;4964664;28;20230;-77
2023/09/27 10:08:14;;;;;;;3.30;0.30;;;;;;;13.46;100.00;100489.56;4966295;28;20076;-77
2023/09/27 10:10:43;;;;;;;1.10;0.57;;;;;;;13.47;100.00;100497.41;4969009;28;20050;-73
2023/09/27 10:13:12;;;;;;;1.60;0.40;;;;;;;13.49;100.00;100510.38;4965698;28;20657;-76
2023/09/27 10:15:43;;;;;;;1.20;0.40;;;;;;;13.49;100.00;100503.50;4967876;28;20480;-76
2023/09/27 10:18:30;;;;;;;3.17;0.45;;;;;;;13.50;100.00;100507.81;4966263;28;20527;-76
2023/09/27 10:21:12;;;;;;;1.63;0.43;;;;;;;13.45;100.00;100506.91;4966392;28;20062;-75
2023/09/27 10:24:04;;;;;;;2.60;0.40;;;;;;;13.42;100.00;100491.22;4972695;28;20049;-77
2023/09/27 10:26:39;;;;;;;1.73;0.20;;;;;;;13.42;100.00;100478.25;4967731;28;20059;-76
2023/09/27 10:29:18;;;;;;;1.05;0.40;;;;;;;13.43;100.00;100490.41;4968623;28;20643;-76
2023/09/27 10:32:19;;;;;;;1.83;0.30;;;;;;;13.45;100.00;100482.63;4964322;28;20055;-75
2023/09/27 10:34:51;;;;;;;2.50;0.40;;;;;;;13.40;100.00;100479.97;4962796;28;20059;-76
2023/09/27 10:37:53;;;;;;;1.10;0.50;;;;;;;13.33;100.00;100472.91;4964586;28;20117;-74
2023/09/27 10:40:23;;;;;;;3.63;0.75;;;;;;;13.36;100.00;100483.38;4952891;28;20231;-76
2023/09/27 10:42:52;;;;;;;1.58;0.32;;;;;;;13.39;100.00;100493.81;4967062;28;20050;-78
2023/09/27 10:45:32;;;;;;;1.77;0.32;;;;;;;13.37;100.00;100500.69;4958407;28;20512;-78
2023/09/27 10:48:18;;;;;;;3.50;0.68;;;;;;;13.36;100.00;100493.78;4962654;28;20079;-75
2023/09/27 10:50:55;;;;;;;1.45;0.43;;;;;;;13.35;100.00;100512.78;4965242;28;20513;-77
2023/09/27 10:53:25;;;;;;;6.22;1.00;;;;;;;13.38;100.00;100518.06;4961751;28;20148;-74
2023/09/27 10:55:54;;;;;;;0.43;0.28;;;;;;;13.40;100.00;100516.34;4967531;28;20496;-73
2023/09/27 10:58:23;;;;;;;2.65;0.40;;;;;;;13.39;100.00;100531.06;4964333;28;20053;-80
2023/09/27 11:00:57;;;;;;;1.80;0.38;;;;;;;13.42;100.00;100540.63;4967400;28;20063;-75
2023/09/27 11:03:29;;;;;;;2.58;0.63;;;;;;;13.42;100.00;100525.03;4966168;28;20050;-75
2023/09/27 11:06:09;;;;;;;1.50;0.47;;;;;;;13.39;100.00;100519.78;4964005;28;20416;-77
2023/09/27 11:08:38;;;;;;;6.70;0.43;;;;;;;13.36;100.00;100524.94;4968610;28;20055;-74
2023/09/27 11:11:09;;;;;;;0.57;0.30;;;;;;;13.38;100.00;100546.66;4965385;28;20043;-74
2023/09/27 11:13:42;;;;;;;2.58;0.47;;;;;;;13.36;100.00;100541.41;4965569;28;20043;-73
2023/09/27 11:16:18;;;;;;;0.30;0.20;;;;;;;13.37;100.00;100542.28;4964249;28;20070;-75
2023/09/27 11:18:48;;;;;;;1.58;0.22;;;;;;;13.35;100.00;100554.38;4967624;28;20050;-75
2023/09/27 11:21:19;;;;;;;4.30;0.40;;;;;;;13.34;100.00;100568.22;4963311;28;20074;-77
2023/09/27 11:23:55;;;;;;;0.80;0.20;;;;;;;13.33;100.00;100577.75;4969628;28;20494;-77
2023/09/27 11:26:24;;;;;;;1.38;0.60;;;;;;;13.35;100.00;100588.16;4963157;28;20047;-75
2023/09/27 11:29:01;;;;;;;6.47;0.40;;;;;;;13.32;100.00;100595.91;4955578;28;20137;-76
2023/09/27 11:31:34;;;;;;;0.80;0.30;;;;;;;13.30;100.00;100600.22;4962649;28;20110;-75
2023/09/27 11:34:16;;;;;;;2.08;0.47;;;;;;;13.32;100.00;100603.72;4961745;28;20059;-74
2023/09/27 11:36:47;;;;;;;0.77;0.23;;;;;;;13.32;100.00;100617.56;4964123;28;20047;-76
2023/09/27 11:39:19;;;;;;;0.65;0.20;;;;;;;13.32;100.00;100624.50;4968047;28;20450;-76